createdAt,value
2022-07-28T00:05:00.863Z,15.6
2022-07-28T00:20:00.860Z,15.4
2022-07-28T00:35:00.857Z,15.4
2022-07-28T00:50:00.870Z,15.2
2022-07-28T01:05:00.843Z,15.1
2022-07-28T01:20:00.850Z,14.9
2022-07-28T01:35:00.861Z,14.9
2022-07-28T01:50:00.842Z,14.8
2022-07-28T02:05:00.996Z,14.8
2022-07-28T02:20:00.843Z,14.6
2022-07-28T02:35:00.849Z,14.6
2022-07-28T02:50:00.869Z,14.3
2022-07-28T03:05:00.919Z,14
2022-07-28T03:20:00.863Z,13.8
2022-07-28T03:35:00.849Z,13.6
2022-07-28T03:50:00.848Z,13.6
2022-07-28T04:05:00.865Z,13.3
2022-07-28T04:20:00.863Z,13.2
2022-07-28T04:35:00.871Z,13.2
2022-07-28T04:50:00.862Z,13.2
2022-07-28T05:05:00.891Z,13.6
2022-07-28T05:20:00.857Z,13.6
2022-07-28T05:35:00.853Z,13.9
2022-07-28T05:50:00.851Z,14.2
2022-07-28T06:05:00.858Z,14.5
2022-07-28T06:20:00.857Z,14.6
2022-07-28T06:35:00.863Z,14.5
2022-07-28T06:50:00.856Z,14.9
2022-07-28T07:05:00.860Z,15.2
2022-07-28T07:20:00.866Z,15.6
2022-07-28T07:35:00.871Z,15.8
2022-07-28T07:50:03.824Z,16.2
2022-07-28T08:05:00.916Z,16.4
2022-07-28T08:20:00.863Z,16.8
2022-07-28T08:35:30.172Z,17
2022-07-28T08:50:00.863Z,17.8
2022-07-28T09:05:00.875Z,17.9
2022-07-28T09:20:00.862Z,18.2
2022-07-28T09:35:00.874Z,18.8
2022-07-28T09:50:00.900Z,19
2022-07-28T10:05:00.857Z,19.8
2022-07-28T10:20:00.867Z,19.7
2022-07-28T10:35:00.854Z,20.2
2022-07-28T10:50:00.862Z,20.3
2022-07-28T11:05:00.855Z,21.2
2022-07-28T11:20:16.545Z,21.2
2022-07-28T11:35:00.872Z,21.9
2022-07-28T11:50:00.870Z,22.3
2022-07-28T12:05:00.897Z,23.1
2022-07-28T12:20:00.870Z,23.6
2022-07-28T12:35:00.947Z,23.6
2022-07-28T12:50:05.014Z,24.1
2022-07-28T13:05:00.861Z,24.9
2022-07-28T13:20:00.869Z,25.1
2022-07-28T13:35:00.863Z,24.6
2022-07-28T13:50:00.861Z,24.3
2022-07-28T14:05:00.868Z,23.9
2022-07-28T14:20:00.857Z,23.9
2022-07-28T14:35:01.944Z,24.2
2022-07-28T14:50:00.847Z,25.4
2022-07-28T15:05:00.852Z,25.2
2022-07-28T15:20:00.903Z,24.8
2022-07-28T15:35:00.848Z,24.8
2022-07-28T15:50:00.867Z,24.8
2022-07-28T16:05:00.860Z,24.8
2022-07-28T16:20:02.193Z,24.7
2022-07-28T16:35:00.866Z,24.3
2022-07-28T16:50:00.842Z,24
2022-07-28T17:05:00.890Z,23.8
2022-07-28T17:20:00.876Z,23.8
2022-07-28T17:35:00.844Z,24.1
2022-07-28T17:50:00.858Z,24.3
2022-07-28T18:05:00.897Z,23.9
2022-07-28T18:20:00.855Z,23.4
2022-07-28T18:35:00.869Z,23
2022-07-28T18:50:00.846Z,22.8
2022-07-28T19:05:00.863Z,22.3
2022-07-28T19:20:00.843Z,22
2022-07-28T19:35:00.878Z,21.6
2022-07-28T19:50:00.871Z,21.2
2022-07-28T20:05:00.853Z,21.1
2022-07-28T20:20:00.871Z,20.8
2022-07-28T20:35:00.846Z,20.7
2022-07-28T20:50:00.875Z,20.3
2022-07-28T21:05:00.866Z,20.1
2022-07-28T21:20:00.859Z,20
2022-07-28T21:35:00.865Z,19.9
2022-07-28T21:50:00.848Z,19.9
2022-07-28T22:05:00.897Z,19.8
2022-07-28T22:20:00.857Z,19.5
2022-07-28T22:35:00.852Z,19.3
2022-07-28T22:50:00.860Z,19.3
2022-07-28T23:05:00.885Z,19.4
2022-07-28T23:20:00.899Z,19.2
2022-07-28T23:35:00.893Z,19.1
2022-07-28T23:50:00.899Z,19.1
